• Join FlightAware (Why Join?)
  • Login
  • US Flag 
11:56AM EDT


 

Airport Tracker/Info


-or-


 

Live Flight TrackerFlight Track Log ✈ N762NC ✈ 25-Aug-2013 ✈ KATL - KMLB

Flight Track Log - Related Links

Times and Time Zones

All times are in EDT time to prevent confusion due to time zone crossing. See the N762NC flight status page for this flight to view local times or setup timezone preferences in your user account.

Time Position Orientation Groundspeed Altitude Reporting Facility
EDT Latitude Longitude Course Direction KTS MPH feet Rate Location/Type
09:23AM 33.6167 -84.3500 128° Southeast 229 264 3,100  Level Atlanta TRACON
09:24AM 33.6000 -84.2833 107° East 263 303 5,600 2,760 Climbing Atlanta TRACON
09:25AM 33.3048 -84.2832 160° South  Level FlightAware Approximate
09:25AM 33.5333 -84.2500 157° South 299 344 8,400  Level Atlanta TRACON
09:26AM 33.1861 -84.2434 163° South  Level FlightAware Approximate
09:26AM 33.4333 -84.2167 164° South 320 368 11,000  Level Atlanta TRACON
09:27AM 33.0735 -84.2025 163° South  Level FlightAware Approximate
09:27AM 33.3411 -84.2203 182° South 348 400 12,500  Level Atlanta Center
09:28AM 32.9980 -84.0966 128° Southeast  Level FlightAware Approximate
09:28AM 33.2431 -84.1878 165° South 364 419 14,600  Level Atlanta Center
09:29AM 33.1700 -84.1008 135° Southeast 356 410 16,600 1,920 Climbing Atlanta Center
09:30AM 33.0867 -84.0189 141° Southeast 378 435 18,500 1,740 Climbing Atlanta Center
09:31AM 33.0011 -83.9397 142° Southeast 383 441 20,100 1,680 Climbing Atlanta Center
09:32AM 32.9069 -83.8583 144° Southeast 403 464 21,900 1,680 Climbing Atlanta Center
09:33AM 32.8169 -83.7694 140° Southeast 416 479 23,500 1,500 Climbing Atlanta Center
09:34AM 32.7269 -83.6708 137° Southeast 428 493 25,000 1,380 Climbing Atlanta Center
09:36AM 32.5514 -83.4964 140° Southeast 459 528 27,300 1,020 Climbing Jacksonville Center
09:37AM 32.4494 -83.3900 139° Southeast 459 528 27,900 420 Climbing Jacksonville Center
09:38AM 32.3433 -83.2983 144° Southeast 473 544 28,200 1,080 Climbing Jacksonville Center
09:39AM 32.2372 -83.2069 144° Southeast 478 550 30,100 1,380 Climbing Jacksonville Center
09:40AM 32.1372 -83.1133 142° Southeast 468 539 31,000 900 Climbing Jacksonville Center
09:41AM 32.0392 -83.0150 140° Southeast 468 539 31,900 480 Climbing Jacksonville Center
09:42AM 31.9389 -82.9169 140° Southeast 468 539 32,000  Climbing Jacksonville Center
09:43AM 31.8344 -82.8167 141° Southeast 475 547 32,000  Level Jacksonville Center
09:44AM 31.7300 -82.7167 141° Southeast 475 547 32,000  Level Jacksonville Center
09:45AM 31.6297 -82.6144 139° Southeast 480 552 32,000  Level Jacksonville Center
09:46AM 31.5311 -82.5050 137° Southeast 480 552 32,000  Level Jacksonville Center
09:47AM 31.4306 -82.3958 137° Southeast 486 559 32,000 -60 Level Jacksonville Center
09:48AM 31.3278 -82.3017 142° Southeast 491 565 31,900 -60 Descending Jacksonville Center
09:49AM 31.2231 -82.2075 142° Southeast 480 552 31,900  Level Jacksonville Center
09:50AM 31.1181 -82.1064 140° Southeast 475 547 31,900  Level Jacksonville Center
09:51AM 31.0131 -82.0053 140° Southeast 480 552 31,900  Level Jacksonville Center
09:52AM 30.9078 -81.9119 143° Southeast 480 552 31,900  Level Jacksonville Center
09:53AM 30.7986 -81.8236 145° Southeast 480 552 31,900  Level Jacksonville Center
09:54AM 30.6853 -81.7403 148° Southeast 480 552 31,900  Level Jacksonville Center
09:55AM 30.5717 -81.6597 149° Southeast 480 552 31,900  Level Jacksonville Center
09:56AM 30.4561 -81.5769 148° Southeast 480 552 31,900  Level Jacksonville Center
09:57AM 30.3403 -81.4989 150° Southeast 480 552 31,900  Level Jacksonville Center
09:58AM 30.2167 -81.4528 162° South 468 539 31,900  Level Jacksonville Center
09:59AM 30.0908 -81.4017 161° South 474 545 31,900  Level Jacksonville Center
10:00AM 29.9669 -81.3558 162° South 474 545 31,900 -60 Level Jacksonville Center
10:01AM 29.8392 -81.3050 161° South 474 545 31,800 -540 Descending Jacksonville Center
10:02AM 29.7194 -81.2447 156° South 479 551 30,900 -960 Descending Jacksonville Center
10:03AM 29.6122 -81.1942 158° South 448 516 29,900 -1,200 Descending Jacksonville Center
10:04AM 29.5075 -81.1672 167° South 409 471 28,500 -2,220 Descending Jacksonville Center
10:05AM 29.4089 -81.1403 167° South 382 440 25,500 -2,400 Descending Jacksonville Center
10:06AM 29.3022 -81.1089 166° South 377 434 23,800 -1,980 Descending Jacksonville Center
10:07AM 29.1872 -81.0992 176° South 395 455 21,600 -2,700 Descending Jacksonville Center
10:08AM 29.0661 -81.0919 177° South 430 495 18,400 -2,940 Descending Jacksonville Center
10:09AM 28.9447 -81.0797 175° South 447 514 15,800 -2,100 Descending Jacksonville Center
10:10AM 28.8297 -81.0631 173° South 440 506 14,300 -1,020 Descending Jacksonville Center
10:11AM 28.7211 -81.0531 175° South 418 481 13,800 -540 Descending Jacksonville Center
10:12AM 28.6164 -81.0314 170° South 398 458 13,300 -660 Descending Jacksonville Center
10:13AM 28.5181 -81.0025 166° South 386 444 12,500 -1,080 Descending Jacksonville Center
10:14AM 28.4167 -80.9667 163° South 302 348 11,100 -1,980 Descending Orlando TRACON
10:15AM 28.3333 -80.9500 170° South 304 350 8,500 -2,340 Descending Orlando TRACON
10:16AM 28.2667 -80.9167 156° South 276 318 6,400 -2,280 Descending Orlando TRACON
10:17AM 28.2500 -80.8500 106° East 265 305 4,200 -1,860 Descending Orlando TRACON
10:18AM 28.3000 -80.8167 30° Northeast 234 269 2,600 -1,080 Descending Orlando TRACON
10:19AM 28.2833 -80.8500 240° Southwest 206 237 2,000 -540 Descending Orlando TRACON
10:20AM 28.2167 -80.8500 180° South 194 223 1,600 -240 Descending Orlando TRACON
10:21AM 28.1667 -80.8333 164° South 198 228 1,600  Level Orlando TRACON
10:22AM 28.1333 -80.8000 139° Southeast 203 234 1,600 -120 Level Orlando TRACON
10:23AM 28.1000 -80.7500 127° Southeast 176 203 1,400 -420 Descending Orlando TRACON
10:24AM 28.1000 -80.7000 90° East 135 155 800 -600 Descending Orlando TRACON